createdAt,value
2018-10-06T00:02:00.208Z,25.70
2018-10-06T00:04:34.225Z,16.73
2018-10-06T00:07:08.156Z,14.58
2018-10-06T00:09:45.086Z,16.12
2018-10-06T00:12:19.627Z,15.00
2018-10-06T00:14:54.800Z,12.15
2018-10-06T00:17:31.480Z,16.32
2018-10-06T00:20:09.558Z,18.48
2018-10-06T00:22:41.494Z,15.80
2018-10-06T00:25:14.108Z,15.75
2018-10-06T00:27:46.288Z,17.32
2018-10-06T00:30:18.140Z,15.63
2018-10-06T00:32:51.783Z,13.85
2018-10-06T00:35:28.949Z,14.13
2018-10-06T00:38:06.869Z,14.95
2018-10-06T00:40:43.006Z,15.93
2018-10-06T00:43:13.593Z,14.38
2018-10-06T00:45:46.805Z,15.20
2018-10-06T00:48:31.161Z,13.22
2018-10-06T00:51:27.024Z,11.48
2018-10-06T00:54:07.900Z,13.25
2018-10-06T00:56:41.030Z,12.13
2018-10-06T00:59:18.168Z,12.35
2018-10-06T01:01:51.063Z,14.18
2018-10-06T01:04:22.430Z,13.43
2018-10-06T01:06:58.241Z,15.40
2018-10-06T01:09:37.743Z,12.98
2018-10-06T01:12:11.264Z,15.55
2018-10-06T01:14:41.784Z,15.00
2018-10-06T01:17:10.657Z,14.90
2018-10-06T01:19:41.223Z,13.65
2018-10-06T01:22:25.830Z,16.70
2018-10-06T01:47:22.666Z,13.85
2018-10-06T01:50:20.393Z,12.30
2018-10-06T01:53:04.674Z,15.38
2018-10-06T02:03:07.441Z,15.65
2018-10-06T02:08:30.707Z,16.95
2018-10-06T02:11:22.718Z,17.85
2018-10-06T02:14:08.878Z,14.60
2018-10-06T02:24:19.371Z,13.43
2018-10-06T02:29:48.227Z,13.90
2018-10-06T02:32:30.034Z,11.68
2018-10-06T02:35:15.356Z,15.25
2018-10-06T02:38:06.823Z,13.25
2018-10-06T02:44:29.168Z,21.17
2018-10-06T03:00:49.508Z,18.70
2018-10-06T03:03:37.315Z,15.30
2018-10-06T03:06:07.664Z,13.38
2018-10-06T03:08:42.750Z,13.22
2018-10-06T03:11:32.930Z,13.32
2018-10-06T03:14:06.038Z,14.15
2018-10-06T03:16:42.835Z,12.80
2018-10-06T03:19:20.108Z,15.85
2018-10-06T03:21:49.270Z,14.20
2018-10-06T03:24:30.647Z,13.95
2018-10-06T03:27:03.722Z,12.28
2018-10-06T03:29:41.894Z,12.63
2018-10-06T03:32:19.875Z,14.95
2018-10-06T03:34:55.893Z,17.02
2018-10-06T03:37:35.404Z,23.05
2018-10-06T03:40:11.619Z,14.75
2018-10-06T03:43:01.094Z,16.17
2018-10-06T03:45:36.412Z,14.15
2018-10-06T03:48:15.465Z,13.43
2018-10-06T03:50:52.732Z,16.55
2018-10-06T03:53:36.409Z,14.70
2018-10-06T03:56:24.308Z,16.37
2018-10-06T03:59:03.234Z,16.95
2018-10-06T04:01:50.362Z,14.70
2018-10-06T04:04:37.253Z,16.42
2018-10-06T04:13:16.922Z,18.17
2018-10-06T04:18:52.423Z,14.98
2018-10-06T04:21:37.459Z,15.95
2018-10-06T04:24:26.856Z,14.65
2018-10-06T04:27:18.558Z,18.37
2018-10-06T04:30:01.665Z,16.35
2018-10-06T04:32:41.472Z,15.72
2018-10-06T04:38:19.872Z,13.90
2018-10-06T04:41:06.322Z,17.32
2018-10-06T04:43:51.374Z,14.80
2018-10-06T04:46:35.716Z,17.82
2018-10-06T04:55:22.367Z,16.48
2018-10-06T04:58:24.228Z,16.30
2018-10-06T05:01:36.970Z,16.67
2018-10-06T05:04:19.346Z,18.85
2018-10-06T05:12:50.266Z,17.85
2018-10-06T05:15:26.976Z,21.15
2018-10-06T05:18:05.217Z,16.77
2018-10-06T05:20:56.278Z,17.17
2018-10-06T05:24:03.732Z,17.73
2018-10-06T05:26:44.119Z,17.52
2018-10-06T05:30:06.595Z,14.38
2018-10-06T05:33:00.806Z,16.37
2018-10-06T05:35:44.171Z,16.30
2018-10-06T05:41:24.699Z,19.32
2018-10-06T05:44:14.355Z,17.07
2018-10-06T05:46:49.017Z,20.05
2018-10-06T05:49:26.859Z,19.50
2018-10-06T05:52:05.797Z,17.15
2018-10-06T05:54:56.669Z,19.95
2018-10-06T05:57:43.812Z,19.35
2018-10-06T06:00:28.790Z,16.87
2018-10-06T06:03:01.196Z,17.67
2018-10-06T06:05:40.883Z,17.25
2018-10-06T06:13:19.235Z,18.37
2018-10-06T06:15:47.541Z,17.15
2018-10-06T06:18:20.567Z,18.23
2018-10-06T06:20:48.824Z,14.83
2018-10-06T06:23:17.068Z,19.20
2018-10-06T06:25:57.476Z,20.88
2018-10-06T06:28:25.773Z,16.87
2018-10-06T06:30:59.683Z,15.70
2018-10-06T06:33:27.970Z,21.73
2018-10-06T06:35:59.938Z,18.48
2018-10-06T06:38:28.365Z,19.92
2018-10-06T06:40:56.551Z,17.95
2018-10-06T06:43:25.717Z,20.90
2018-10-06T06:45:53.947Z,15.80
2018-10-06T06:48:22.204Z,19.65
2018-10-06T06:50:50.514Z,19.52
2018-10-06T06:53:20.308Z,17.67
2018-10-06T06:55:51.316Z,15.60
2018-10-06T06:58:22.160Z,17.48
2018-10-06T07:00:55.655Z,16.77
2018-10-06T07:18:44.060Z,16.57
2018-10-06T07:21:17.192Z,16.95
2018-10-06T07:23:47.752Z,21.48
2018-10-06T07:26:24.596Z,18.70
2018-10-06T07:28:56.042Z,16.93
2018-10-06T07:31:30.119Z,17.80
2018-10-06T07:34:14.453Z,16.40
2018-10-06T07:36:45.998Z,18.45
2018-10-06T08:14:49.305Z,16.57
2018-10-06T08:17:23.795Z,16.50
2018-10-06T08:31:46.431Z,21.02
2018-10-06T09:06:59.666Z,17.20
2018-10-06T09:12:40.127Z,17.45
2018-10-06T09:15:16.044Z,22.00
2018-10-06T09:17:53.731Z,18.05
2018-10-06T09:20:29.397Z,16.17
2018-10-06T09:23:09.696Z,18.98
2018-10-06T09:28:36.629Z,18.10
2018-10-06T09:31:24.554Z,17.55
2018-10-06T09:34:01.078Z,19.30
2018-10-06T09:36:41.636Z,17.12
2018-10-06T09:42:05.078Z,18.77
2018-10-06T09:47:46.545Z,18.15
2018-10-06T09:53:19.262Z,19.02
2018-10-06T09:55:54.828Z,18.90
2018-10-06T09:58:26.691Z,21.75
2018-10-06T10:01:02.910Z,21.65
2018-10-06T10:03:38.792Z,18.00
2018-10-06T10:06:13.560Z,25.62
2018-10-06T10:08:42.203Z,22.70
2018-10-06T10:11:48.124Z,24.52
2018-10-06T10:14:38.591Z,17.10
2018-10-06T10:20:36.788Z,18.40
2018-10-06T10:23:16.341Z,18.40
2018-10-06T10:28:57.022Z,18.02
2018-10-06T10:31:33.785Z,18.37
2018-10-06T10:34:09.785Z,19.23
2018-10-06T10:37:01.046Z,22.45
2018-10-06T10:39:45.872Z,17.52
2018-10-06T10:42:23.092Z,18.75
2018-10-06T10:45:08.644Z,18.40
2018-10-06T10:50:37.603Z,20.15
2018-10-06T10:56:20.552Z,20.82
2018-10-06T10:58:58.125Z,16.90
2018-10-06T11:01:31.805Z,17.20
2018-10-06T11:04:08.980Z,20.02
2018-10-06T11:06:54.651Z,18.35
2018-10-06T11:09:23.471Z,17.77
2018-10-06T11:11:52.535Z,20.23
2018-10-06T11:14:21.424Z,20.05
2018-10-06T11:16:50.529Z,19.48
2018-10-06T11:19:19.497Z,21.90
2018-10-06T11:21:49.671Z,21.40
2018-10-06T11:24:21.233Z,17.90
2018-10-06T11:26:50.468Z,20.08
2018-10-06T11:29:19.547Z,21.65
2018-10-06T11:31:49.234Z,21.97
2018-10-06T11:34:18.424Z,21.33
2018-10-06T11:36:51.116Z,20.97
2018-10-06T11:39:20.691Z,24.27
2018-10-06T11:41:54.728Z,19.60
2018-10-06T11:44:32.207Z,29.67
2018-10-06T11:47:20.068Z,21.90
2018-10-06T11:49:54.539Z,23.57
2018-10-06T11:52:23.363Z,21.68
2018-10-06T11:55:30.324Z,14.83
2018-10-06T11:57:58.581Z,19.40
2018-10-06T12:00:26.921Z,14.38
2018-10-06T12:02:55.145Z,17.05
2018-10-06T12:05:23.454Z,18.30
2018-10-06T12:07:52.447Z,17.23
2018-10-06T12:10:22.730Z,19.77
2018-10-06T12:12:51.000Z,17.45
2018-10-06T12:15:19.290Z,19.57
2018-10-06T12:17:47.638Z,17.50
2018-10-06T12:20:16.071Z,22.75
2018-10-06T12:22:44.347Z,17.87
2018-10-06T12:25:12.887Z,17.27
2018-10-06T12:27:41.154Z,25.80
2018-10-06T12:30:09.568Z,18.10
2018-10-06T12:32:38.188Z,20.80
2018-10-06T12:35:06.574Z,17.55
2018-10-06T12:37:34.824Z,17.30
2018-10-06T12:40:03.285Z,17.57
2018-10-06T12:42:38.114Z,20.05
2018-10-06T12:45:06.674Z,19.73
2018-10-06T12:47:35.320Z,18.02
2018-10-06T12:50:03.639Z,17.37
2018-10-06T12:52:32.313Z,18.67
2018-10-06T12:55:00.585Z,20.27
2018-10-06T12:57:28.870Z,16.23
2018-10-06T12:59:57.245Z,21.73
2018-10-06T13:02:26.271Z,21.97
2018-10-06T13:04:55.539Z,16.20
2018-10-06T13:07:24.880Z,16.57
2018-10-06T13:09:53.157Z,18.90
2018-10-06T13:12:21.397Z,17.62
2018-10-06T13:14:53.720Z,20.02
2018-10-06T13:17:23.070Z,19.50
2018-10-06T13:19:51.351Z,18.92
2018-10-06T13:22:20.125Z,18.90
2018-10-06T13:24:50.304Z,18.77
2018-10-06T13:27:19.592Z,17.55
2018-10-06T13:29:47.935Z,16.80
2018-10-06T13:32:17.043Z,19.30
2018-10-06T13:34:45.328Z,17.35
2018-10-06T13:37:13.700Z,15.28
2018-10-06T13:39:42.076Z,15.80
2018-10-06T13:42:10.435Z,15.85
2018-10-06T13:44:38.773Z,15.15
2018-10-06T13:47:07.474Z,20.10
2018-10-06T13:49:35.771Z,13.83
2018-10-06T13:52:04.096Z,13.40
2018-10-06T13:54:32.344Z,15.32
2018-10-06T13:57:00.618Z,11.57
2018-10-06T13:59:29.155Z,9.03
2018-10-06T14:01:57.499Z,11.12
2018-10-06T14:04:25.861Z,20.02
2018-10-06T14:06:54.612Z,13.28
2018-10-06T14:09:22.919Z,13.58
2018-10-06T14:11:51.275Z,14.73
2018-10-06T14:14:19.566Z,9.58
2018-10-06T14:16:47.822Z,7.95
2018-10-06T14:19:16.074Z,12.28
2018-10-06T14:21:44.398Z,11.30
2018-10-06T14:24:12.679Z,12.78
2018-10-06T14:26:41.396Z,10.98
2018-10-06T14:32:09.175Z,11.03
2018-10-06T14:34:53.493Z,8.08
2018-10-06T14:37:33.770Z,15.78
2018-10-06T14:40:20.374Z,9.73
2018-10-06T14:42:55.450Z,10.15
2018-10-06T14:45:35.160Z,10.05
2018-10-06T14:57:45.995Z,7.47
2018-10-06T15:00:22.310Z,12.47
2018-10-06T15:05:50.183Z,12.25
2018-10-06T15:08:23.285Z,8.83
2018-10-06T15:11:08.737Z,13.48
2018-10-06T15:13:42.778Z,9.73
2018-10-06T15:16:16.728Z,9.50
2018-10-06T15:21:59.293Z,11.40
2018-10-06T15:24:29.682Z,9.80
2018-10-06T15:27:00.141Z,10.58
2018-10-06T15:29:29.446Z,10.20
2018-10-06T15:31:57.699Z,17.30
2018-10-06T15:34:26.929Z,10.45
2018-10-06T15:36:55.197Z,14.13
2018-10-06T15:39:23.766Z,18.85
2018-10-06T15:41:52.820Z,13.93
2018-10-06T15:44:21.273Z,16.80
2018-10-06T15:46:49.662Z,13.68
2018-10-06T15:49:18.030Z,20.43
2018-10-06T15:51:46.392Z,15.95
2018-10-06T15:54:14.712Z,12.50
2018-10-06T15:56:43.175Z,17.98
2018-10-06T15:59:12.009Z,18.48
2018-10-06T16:01:40.362Z,19.23
2018-10-06T16:04:09.292Z,22.82
2018-10-06T16:06:37.590Z,23.75
2018-10-06T16:09:07.998Z,20.20
2018-10-06T16:11:37.957Z,19.75
2018-10-06T16:14:06.347Z,16.67
2018-10-06T16:16:34.896Z,15.83
2018-10-06T16:19:03.218Z,17.27
2018-10-06T16:21:31.668Z,21.33
2018-10-06T16:24:00.740Z,15.83
2018-10-06T16:26:29.134Z,18.60
2018-10-06T16:28:58.817Z,19.73
2018-10-06T16:31:28.617Z,24.50
2018-10-06T16:33:57.429Z,19.55
2018-10-06T16:36:25.826Z,21.68
2018-10-06T16:38:54.257Z,24.05
2018-10-06T16:41:22.729Z,19.15
2018-10-06T16:43:51.032Z,24.60
2018-10-06T16:46:19.302Z,23.12
2018-10-06T16:48:47.596Z,21.80
2018-10-06T16:51:15.957Z,21.10
2018-10-06T16:53:44.214Z,25.52
2018-10-06T16:56:13.141Z,25.05
2018-10-06T16:58:41.454Z,27.73
2018-10-06T17:01:09.747Z,23.83
2018-10-06T17:03:38.044Z,26.00
2018-10-06T17:06:06.356Z,23.55
2018-10-06T17:08:34.877Z,22.93
2018-10-06T17:11:03.208Z,27.00
2018-10-06T17:13:31.477Z,20.57
2018-10-06T17:15:59.974Z,28.25
2018-10-06T17:18:33.424Z,24.87
2018-10-06T17:24:13.457Z,30.60
2018-10-06T17:26:57.916Z,32.42
2018-10-06T17:32:55.217Z,31.23
2018-10-06T17:35:39.711Z,34.92
2018-10-06T17:38:14.830Z,33.35
2018-10-06T17:41:10.807Z,28.80
2018-10-06T17:43:46.100Z,49.13
2018-10-06T17:46:21.387Z,37.90
2018-10-06T17:48:49.972Z,28.07
2018-10-06T17:51:49.623Z,36.85
2018-10-06T17:54:17.894Z,40.85
2018-10-06T17:56:46.177Z,41.35
2018-10-06T17:59:14.434Z,49.58
2018-10-06T18:01:42.698Z,42.27
2018-10-06T18:04:10.937Z,47.25
2018-10-06T18:06:39.191Z,52.03
2018-10-06T18:09:08.847Z,56.88
2018-10-06T18:11:37.377Z,46.33
2018-10-06T18:14:06.859Z,40.67
2018-10-06T18:16:35.206Z,43.10
2018-10-06T18:19:03.474Z,49.98
2018-10-06T18:21:32.194Z,58.55
2018-10-06T18:24:00.359Z,57.93
2018-10-06T18:26:28.719Z,59.40
2018-10-06T18:28:57.037Z,44.08
2018-10-06T18:31:25.313Z,59.13
2018-10-06T18:33:53.621Z,47.80
2018-10-06T18:36:22.006Z,45.67
2018-10-06T18:38:50.201Z,54.10
2018-10-06T18:41:18.485Z,66.53
2018-10-06T18:43:46.950Z,54.30
2018-10-06T18:46:15.211Z,56.92
2018-10-06T18:48:43.497Z,53.05
2018-10-06T18:51:11.945Z,60.80
2018-10-06T18:53:40.587Z,60.12
2018-10-06T18:56:08.959Z,55.73
2018-10-06T18:58:37.206Z,61.80
2018-10-06T19:01:05.469Z,53.38
2018-10-06T19:03:33.851Z,63.25
2018-10-06T19:06:02.115Z,61.75
2018-10-06T19:08:30.369Z,56.30
2018-10-06T19:10:58.664Z,56.58
2018-10-06T19:13:27.017Z,64.30
2018-10-06T19:15:55.328Z,58.40
2018-10-06T19:18:23.932Z,57.27
2018-10-06T19:20:52.231Z,64.47
2018-10-06T19:23:20.529Z,67.08
2018-10-06T19:25:48.897Z,74.45
2018-10-06T19:28:17.124Z,73.28
2018-10-06T19:30:45.444Z,69.30
2018-10-06T19:33:13.746Z,66.60
2018-10-06T19:35:42.478Z,78.30
2018-10-06T19:38:10.821Z,75.52
2018-10-06T19:40:39.104Z,81.08
2018-10-06T19:43:07.404Z,65.17
2018-10-06T19:45:35.705Z,71.70
2018-10-06T19:48:04.102Z,76.92
2018-10-06T19:50:32.522Z,73.40
2018-10-06T19:53:00.798Z,85.00
2018-10-06T19:55:29.192Z,81.10
2018-10-06T19:57:57.465Z,83.25
2018-10-06T20:00:26.487Z,81.35
2018-10-06T20:02:54.751Z,86.87
2018-10-06T20:05:23.025Z,82.53
2018-10-06T20:07:51.376Z,79.15
2018-10-06T20:10:19.634Z,89.47
2018-10-06T20:12:47.904Z,81.57
2018-10-06T20:15:16.214Z,77.25
2018-10-06T20:17:45.033Z,90.90
2018-10-06T20:20:13.322Z,89.85
2018-10-06T20:22:41.775Z,84.37
2018-10-06T20:25:10.162Z,82.25
2018-10-06T20:27:38.452Z,70.47
2018-10-06T20:30:06.793Z,73.62
2018-10-06T20:32:35.070Z,70.03
2018-10-06T20:35:03.969Z,80.20
2018-10-06T20:37:32.279Z,79.58
2018-10-06T20:40:00.607Z,75.95
2018-10-06T20:42:28.899Z,62.00
2018-10-06T20:44:57.153Z,71.50
2018-10-06T20:47:25.532Z,64.87
2018-10-06T20:49:53.823Z,58.30
2018-10-06T20:52:22.103Z,45.58
2018-10-06T20:54:50.440Z,50.38
2018-10-06T20:57:18.743Z,44.93
2018-10-06T20:59:47.047Z,38.85
2018-10-06T21:02:15.311Z,30.72
2018-10-06T21:04:43.651Z,32.63
2018-10-06T21:07:11.947Z,31.82
2018-10-06T21:09:40.509Z,34.23
2018-10-06T21:12:08.887Z,32.58
2018-10-06T21:14:37.170Z,35.30
2018-10-06T21:17:05.673Z,27.05
2018-10-06T21:19:33.979Z,29.82
2018-10-06T21:22:02.251Z,30.82
2018-10-06T21:24:30.512Z,21.02
2018-10-06T21:26:58.775Z,24.32
2018-10-06T21:29:27.467Z,22.80
2018-10-06T21:31:55.682Z,24.18
2018-10-06T21:34:24.641Z,28.12
2018-10-06T21:36:53.003Z,22.62
2018-10-06T21:39:21.335Z,28.62
2018-10-06T21:41:49.598Z,23.83
2018-10-06T21:44:17.868Z,22.58
2018-10-06T21:46:46.133Z,30.25
2018-10-06T21:49:14.569Z,20.48
2018-10-06T21:51:42.847Z,19.12
2018-10-06T21:54:11.125Z,22.30
2018-10-06T21:56:39.418Z,19.35
2018-10-06T21:59:07.712Z,28.47
2018-10-06T22:01:35.992Z,18.75
2018-10-06T22:04:04.370Z,18.37
2018-10-06T22:06:32.647Z,11.45
2018-10-06T22:09:00.993Z,13.15
2018-10-06T22:11:29.585Z,9.75
2018-10-06T22:13:57.859Z,13.00
2018-10-06T22:16:26.157Z,9.20
2018-10-06T22:18:55.242Z,8.38
2018-10-06T22:21:23.518Z,7.47
2018-10-06T22:23:51.953Z,10.88
2018-10-06T22:26:20.201Z,8.08
2018-10-06T22:28:48.490Z,7.33
2018-10-06T22:31:16.768Z,5.12
2018-10-06T22:33:45.049Z,6.15
2018-10-06T22:36:13.309Z,4.92
2018-10-06T22:38:41.583Z,4.47
2018-10-06T22:41:09.834Z,6.17
2018-10-06T22:43:38.099Z,7.35
2018-10-06T22:46:06.665Z,7.50
2018-10-06T22:48:34.905Z,5.17
2018-10-06T22:51:03.167Z,3.27
2018-10-06T22:53:32.246Z,2.75
2018-10-06T22:56:00.994Z,3.98
2018-10-06T22:58:29.316Z,7.05
2018-10-06T23:00:57.560Z,2.60
2018-10-06T23:03:26.235Z,3.10
2018-10-06T23:05:54.531Z,1.60
2018-10-06T23:08:22.805Z,2.85
2018-10-06T23:10:51.053Z,3.47
2018-10-06T23:13:19.370Z,5.37
2018-10-06T23:15:47.626Z,4.80
2018-10-06T23:18:15.862Z,2.98
2018-10-06T23:20:44.115Z,6.10
2018-10-06T23:23:12.375Z,6.47
2018-10-06T23:25:40.614Z,3.67
2018-10-06T23:28:08.848Z,5.53
2018-10-06T23:30:37.138Z,4.03
2018-10-06T23:33:05.959Z,6.55
2018-10-06T23:35:34.181Z,9.33
2018-10-06T23:38:03.188Z,6.08
2018-10-06T23:40:31.853Z,6.92
2018-10-06T23:43:00.118Z,20.10
2018-10-06T23:45:28.405Z,8.40
2018-10-06T23:47:56.931Z,10.10
2018-10-06T23:50:26.175Z,9.25
2018-10-06T23:52:54.432Z,10.40
2018-10-06T23:55:22.933Z,7.15
2018-10-06T23:57:51.162Z,9.30
